sensor_id;sensor_type;location;lat;lon;timestamp;P1;durP1;ratioP1;P2;durP2;ratioP2
69551;SDS011;63774;45.292;11.784;2022-12-20T00:00:00;16.60;;;9.90;;
69551;SDS011;63774;45.292;11.784;2022-12-20T00:02:25;16.20;;;10.00;;
69551;SDS011;63774;45.292;11.784;2022-12-20T00:04:51;14.50;;;9.80;;
69551;SDS011;63774;45.292;11.784;2022-12-20T00:07:16;16.40;;;10.10;;
69551;SDS011;63774;45.292;11.784;2022-12-20T00:09:42;15.60;;;9.90;;
69551;SDS011;63774;45.292;11.784;2022-12-20T00:12:07;14.80;;;10.00;;
69551;SDS011;63774;45.292;11.784;2022-12-20T00:14:33;15.80;;;10.00;;
69551;SDS011;63774;45.292;11.784;2022-12-20T00:16:58;15.70;;;10.00;;
69551;SDS011;63774;45.292;11.784;2022-12-20T00:19:24;14.70;;;10.10;;
69551;SDS011;63774;45.292;11.784;2022-12-20T00:21:49;15.00;;;9.90;;
69551;SDS011;63774;45.292;11.784;2022-12-20T00:24:14;15.40;;;9.90;;
69551;SDS011;63774;45.292;11.784;2022-12-20T00:26:40;16.60;;;10.80;;
69551;SDS011;63774;45.292;11.784;2022-12-20T00:29:06;16.10;;;9.60;;
69551;SDS011;63774;45.292;11.784;2022-12-20T00:31:32;14.90;;;9.80;;
69551;SDS011;63774;45.292;11.784;2022-12-20T00:33:59;15.10;;;10.50;;
69551;SDS011;63774;45.292;11.784;2022-12-20T00:36:26;13.90;;;10.00;;
69551;SDS011;63774;45.292;11.784;2022-12-20T00:38:54;16.10;;;9.40;;
69551;SDS011;63774;45.292;11.784;2022-12-20T00:41:21;15.80;;;10.20;;
69551;SDS011;63774;45.292;11.784;2022-12-20T00:43:49;13.10;;;9.30;;
69551;SDS011;63774;45.292;11.784;2022-12-20T00:46:16;15.00;;;10.00;;
69551;SDS011;63774;45.292;11.784;2022-12-20T00:48:42;15.10;;;10.20;;
69551;SDS011;63774;45.292;11.784;2022-12-20T00:51:09;13.30;;;9.70;;
69551;SDS011;63774;45.292;11.784;2022-12-20T00:53:41;15.10;;;10.20;;
69551;SDS011;63774;45.292;11.784;2022-12-20T00:56:07;16.20;;;10.00;;
69551;SDS011;63774;45.292;11.784;2022-12-20T00:58:34;13.90;;;9.90;;
69551;SDS011;63774;45.292;11.784;2022-12-20T01:01:01;14.80;;;9.90;;
69551;SDS011;63774;45.292;11.784;2022-12-20T01:03:27;15.20;;;9.50;;
69551;SDS011;63774;45.292;11.784;2022-12-20T01:05:53;15.20;;;10.40;;
69551;SDS011;63774;45.292;11.784;2022-12-20T01:08:19;14.90;;;10.00;;
69551;SDS011;63774;45.292;11.784;2022-12-20T01:10:45;14.50;;;9.90;;
69551;SDS011;63774;45.292;11.784;2022-12-20T01:13:11;14.90;;;9.60;;
69551;SDS011;63774;45.292;11.784;2022-12-20T01:15:37;15.20;;;10.20;;
69551;SDS011;63774;45.292;11.784;2022-12-20T01:18:02;14.30;;;9.80;;
69551;SDS011;63774;45.292;11.784;2022-12-20T01:20:28;15.70;;;10.00;;
69551;SDS011;63774;45.292;11.784;2022-12-20T01:22:53;15.60;;;9.80;;
69551;SDS011;63774;45.292;11.784;2022-12-20T01:25:19;15.00;;;9.70;;
69551;SDS011;63774;45.292;11.784;2022-12-20T01:27:44;14.70;;;9.90;;
69551;SDS011;63774;45.292;11.784;2022-12-20T01:30:10;15.70;;;10.50;;
69551;SDS011;63774;45.292;11.784;2022-12-20T01:32:36;15.40;;;10.60;;
69551;SDS011;63774;45.292;11.784;2022-12-20T01:35:01;15.80;;;10.40;;
69551;SDS011;63774;45.292;11.784;2022-12-20T01:37:27;13.60;;;9.70;;
69551;SDS011;63774;45.292;11.784;2022-12-20T01:39:53;15.40;;;9.80;;
69551;SDS011;63774;45.292;11.784;2022-12-20T01:42:19;14.40;;;10.10;;
69551;SDS011;63774;45.292;11.784;2022-12-20T01:47:10;13.80;;;9.70;;
69551;SDS011;63774;45.292;11.784;2022-12-20T01:49:38;14.30;;;10.00;;
69551;SDS011;63774;45.292;11.784;2022-12-20T01:54:38;15.10;;;10.20;;
69551;SDS011;63774;45.292;11.784;2022-12-20T01:57:13;15.20;;;10.00;;
69551;SDS011;63774;45.292;11.784;2022-12-20T02:00:09;15.20;;;9.80;;
69551;SDS011;63774;45.292;11.784;2022-12-20T02:02:36;14.50;;;9.50;;
69551;SDS011;63774;45.292;11.784;2022-12-20T02:05:02;15.50;;;9.90;;
69551;SDS011;63774;45.292;11.784;2022-12-20T02:07:28;14.60;;;9.60;;
69551;SDS011;63774;45.292;11.784;2022-12-20T02:09:57;14.40;;;9.70;;
69551;SDS011;63774;45.292;11.784;2022-12-20T02:12:24;16.20;;;10.10;;
69551;SDS011;63774;45.292;11.784;2022-12-20T02:31:24;14.90;;;9.40;;
69551;SDS011;63774;45.292;11.784;2022-12-20T02:33:53;14.50;;;9.30;;
69551;SDS011;63774;45.292;11.784;2022-12-20T02:36:21;13.60;;;9.30;;
69551;SDS011;63774;45.292;11.784;2022-12-20T02:38:47;14.40;;;9.90;;
69551;SDS011;63774;45.292;11.784;2022-12-20T02:41:23;14.70;;;9.90;;
69551;SDS011;63774;45.292;11.784;2022-12-20T02:43:53;13.80;;;9.20;;
69551;SDS011;63774;45.292;11.784;2022-12-20T02:46:42;14.30;;;10.00;;
69551;SDS011;63774;45.292;11.784;2022-12-20T02:49:13;14.60;;;9.60;;
69551;SDS011;63774;45.292;11.784;2022-12-20T02:51:41;14.00;;;10.10;;
69551;SDS011;63774;45.292;11.784;2022-12-20T02:54:10;14.10;;;9.60;;
69551;SDS011;63774;45.292;11.784;2022-12-20T02:56:37;13.20;;;9.40;;
69551;SDS011;63774;45.292;11.784;2022-12-20T03:01:36;13.70;;;9.40;;
69551;SDS011;63774;45.292;11.784;2022-12-20T03:04:05;14.30;;;9.40;;
69551;SDS011;63774;45.292;11.784;2022-12-20T03:06:32;15.40;;;9.70;;
69551;SDS011;63774;45.292;11.784;2022-12-20T03:08:58;14.10;;;9.20;;
69551;SDS011;63774;45.292;11.784;2022-12-20T03:11:23;13.70;;;9.40;;
69551;SDS011;63774;45.292;11.784;2022-12-20T03:13:49;14.30;;;9.30;;
69551;SDS011;63774;45.292;11.784;2022-12-20T03:16:15;15.20;;;9.70;;
69551;SDS011;63774;45.292;11.784;2022-12-20T03:18:40;12.60;;;9.60;;
69551;SDS011;63774;45.292;11.784;2022-12-20T03:21:06;12.90;;;9.10;;
69551;SDS011;63774;45.292;11.784;2022-12-20T03:23:32;15.20;;;10.00;;
69551;SDS011;63774;45.292;11.784;2022-12-20T03:25:57;14.50;;;9.60;;
69551;SDS011;63774;45.292;11.784;2022-12-20T03:28:23;14.30;;;9.20;;
69551;SDS011;63774;45.292;11.784;2022-12-20T03:30:48;13.20;;;9.20;;
69551;SDS011;63774;45.292;11.784;2022-12-20T03:33:14;12.90;;;9.10;;
69551;SDS011;63774;45.292;11.784;2022-12-20T03:35:40;13.60;;;9.30;;
69551;SDS011;63774;45.292;11.784;2022-12-20T03:38:05;14.70;;;9.50;;
69551;SDS011;63774;45.292;11.784;2022-12-20T03:40:31;14.60;;;9.70;;
69551;SDS011;63774;45.292;11.784;2022-12-20T03:42:57;14.00;;;9.30;;
69551;SDS011;63774;45.292;11.784;2022-12-20T03:45:22;12.60;;;9.20;;
69551;SDS011;63774;45.292;11.784;2022-12-20T03:47:48;15.80;;;9.80;;
69551;SDS011;63774;45.292;11.784;2022-12-20T03:50:14;12.30;;;8.50;;
69551;SDS011;63774;45.292;11.784;2022-12-20T03:52:39;12.90;;;8.70;;
69551;SDS011;63774;45.292;11.784;2022-12-20T03:55:05;13.30;;;8.60;;
69551;SDS011;63774;45.292;11.784;2022-12-20T03:57:31;15.30;;;9.90;;
69551;SDS011;63774;45.292;11.784;2022-12-20T03:59:57;14.00;;;9.30;;
69551;SDS011;63774;45.292;11.784;2022-12-20T04:02:22;12.90;;;9.50;;
69551;SDS011;63774;45.292;11.784;2022-12-20T04:04:48;14.00;;;9.30;;
69551;SDS011;63774;45.292;11.784;2022-12-20T04:07:14;13.40;;;9.10;;
69551;SDS011;63774;45.292;11.784;2022-12-20T04:09:40;13.40;;;9.70;;
69551;SDS011;63774;45.292;11.784;2022-12-20T04:12:06;14.30;;;10.00;;
69551;SDS011;63774;45.292;11.784;2022-12-20T04:14:32;12.90;;;9.20;;
69551;SDS011;63774;45.292;11.784;2022-12-20T04:16:57;13.90;;;9.00;;
69551;SDS011;63774;45.292;11.784;2022-12-20T04:19:23;12.30;;;9.00;;
69551;SDS011;63774;45.292;11.784;2022-12-20T04:21:48;13.50;;;9.00;;
69551;SDS011;63774;45.292;11.784;2022-12-20T04:24:14;14.20;;;9.70;;
69551;SDS011;63774;45.292;11.784;2022-12-20T04:26:40;15.40;;;10.10;;
69551;SDS011;63774;45.292;11.784;2022-12-20T04:29:06;15.10;;;9.70;;
69551;SDS011;63774;45.292;11.784;2022-12-20T04:31:31;12.90;;;8.80;;
69551;SDS011;63774;45.292;11.784;2022-12-20T04:33:57;14.40;;;9.60;;
69551;SDS011;63774;45.292;11.784;2022-12-20T04:36:23;12.70;;;9.30;;
69551;SDS011;63774;45.292;11.784;2022-12-20T04:38:48;13.10;;;9.00;;
69551;SDS011;63774;45.292;11.784;2022-12-20T04:41:14;13.40;;;9.10;;
69551;SDS011;63774;45.292;11.784;2022-12-20T04:43:53;14.60;;;9.60;;
69551;SDS011;63774;45.292;11.784;2022-12-20T04:46:20;13.30;;;9.00;;
69551;SDS011;63774;45.292;11.784;2022-12-20T04:48:46;14.10;;;8.50;;
69551;SDS011;63774;45.292;11.784;2022-12-20T04:51:13;14.30;;;9.60;;
69551;SDS011;63774;45.292;11.784;2022-12-20T04:53:39;14.10;;;9.50;;
69551;SDS011;63774;45.292;11.784;2022-12-20T04:56:18;13.00;;;9.20;;
69551;SDS011;63774;45.292;11.784;2022-12-20T04:58:46;13.10;;;9.10;;
69551;SDS011;63774;45.292;11.784;2022-12-20T05:01:13;13.50;;;9.00;;
69551;SDS011;63774;45.292;11.784;2022-12-20T05:03:40;12.30;;;8.80;;
69551;SDS011;63774;45.292;11.784;2022-12-20T05:06:06;13.60;;;9.10;;
69551;SDS011;63774;45.292;11.784;2022-12-20T05:08:32;12.70;;;8.90;;
69551;SDS011;63774;45.292;11.784;2022-12-20T05:10:58;14.00;;;9.10;;
69551;SDS011;63774;45.292;11.784;2022-12-20T05:13:24;13.90;;;9.90;;
69551;SDS011;63774;45.292;11.784;2022-12-20T05:15:53;12.20;;;8.90;;
69551;SDS011;63774;45.292;11.784;2022-12-20T05:18:19;13.30;;;9.10;;
69551;SDS011;63774;45.292;11.784;2022-12-20T05:20:45;12.60;;;9.00;;
69551;SDS011;63774;45.292;11.784;2022-12-20T05:23:12;13.40;;;9.50;;
69551;SDS011;63774;45.292;11.784;2022-12-20T05:26:04;12.30;;;8.30;;
69551;SDS011;63774;45.292;11.784;2022-12-20T05:28:41;12.80;;;9.30;;
69551;SDS011;63774;45.292;11.784;2022-12-20T05:31:07;13.00;;;8.90;;
69551;SDS011;63774;45.292;11.784;2022-12-20T05:33:32;13.10;;;9.60;;
69551;SDS011;63774;45.292;11.784;2022-12-20T05:35:58;11.60;;;8.60;;
69551;SDS011;63774;45.292;11.784;2022-12-20T05:38:23;12.50;;;8.70;;
69551;SDS011;63774;45.292;11.784;2022-12-20T05:40:49;13.10;;;9.30;;
69551;SDS011;63774;45.292;11.784;2022-12-20T05:43:15;15.00;;;9.70;;
69551;SDS011;63774;45.292;11.784;2022-12-20T05:45:49;13.70;;;9.10;;
69551;SDS011;63774;45.292;11.784;2022-12-20T05:48:16;12.60;;;8.50;;
69551;SDS011;63774;45.292;11.784;2022-12-20T05:50:44;13.70;;;9.00;;
69551;SDS011;63774;45.292;11.784;2022-12-20T05:53:11;12.80;;;8.50;;
69551;SDS011;63774;45.292;11.784;2022-12-20T05:55:48;12.30;;;8.70;;
69551;SDS011;63774;45.292;11.784;2022-12-20T05:58:15;11.90;;;8.40;;
69551;SDS011;63774;45.292;11.784;2022-12-20T06:00:41;12.30;;;9.00;;
69551;SDS011;63774;45.292;11.784;2022-12-20T06:03:08;14.10;;;9.60;;
69551;SDS011;63774;45.292;11.784;2022-12-20T06:05:36;15.00;;;9.60;;
69551;SDS011;63774;45.292;11.784;2022-12-20T06:08:03;15.10;;;9.70;;
69551;SDS011;63774;45.292;11.784;2022-12-20T06:10:29;14.20;;;10.00;;
69551;SDS011;63774;45.292;11.784;2022-12-20T06:12:55;13.20;;;9.10;;
69551;SDS011;63774;45.292;11.784;2022-12-20T06:15:21;15.70;;;10.40;;
69551;SDS011;63774;45.292;11.784;2022-12-20T06:17:46;13.60;;;9.60;;
69551;SDS011;63774;45.292;11.784;2022-12-20T06:20:12;15.70;;;10.20;;
69551;SDS011;63774;45.292;11.784;2022-12-20T06:22:37;12.30;;;9.10;;
69551;SDS011;63774;45.292;11.784;2022-12-20T06:25:04;14.80;;;9.60;;
69551;SDS011;63774;45.292;11.784;2022-12-20T06:27:30;13.90;;;9.20;;
69551;SDS011;63774;45.292;11.784;2022-12-20T06:29:55;14.20;;;9.40;;
69551;SDS011;63774;45.292;11.784;2022-12-20T06:32:21;13.30;;;9.00;;
69551;SDS011;63774;45.292;11.784;2022-12-20T06:34:46;13.50;;;9.60;;
69551;SDS011;63774;45.292;11.784;2022-12-20T06:37:12;15.70;;;10.50;;
69551;SDS011;63774;45.292;11.784;2022-12-20T06:39:37;16.10;;;10.30;;
69551;SDS011;63774;45.292;11.784;2022-12-20T06:42:03;13.50;;;9.70;;
69551;SDS011;63774;45.292;11.784;2022-12-20T06:44:29;15.30;;;9.90;;
69551;SDS011;63774;45.292;11.784;2022-12-20T06:46:54;14.60;;;9.90;;
69551;SDS011;63774;45.292;11.784;2022-12-20T06:49:20;14.40;;;9.50;;
69551;SDS011;63774;45.292;11.784;2022-12-20T06:51:46;15.60;;;9.40;;
69551;SDS011;63774;45.292;11.784;2022-12-20T06:54:12;14.80;;;9.60;;
69551;SDS011;63774;45.292;11.784;2022-12-20T06:56:38;14.30;;;9.80;;
69551;SDS011;63774;45.292;11.784;2022-12-20T06:59:04;14.40;;;9.40;;
69551;SDS011;63774;45.292;11.784;2022-12-20T07:01:30;12.30;;;9.10;;
69551;SDS011;63774;45.292;11.784;2022-12-20T07:03:55;13.80;;;9.10;;
69551;SDS011;63774;45.292;11.784;2022-12-20T07:06:21;13.80;;;9.60;;
69551;SDS011;63774;45.292;11.784;2022-12-20T07:08:46;12.70;;;9.10;;
69551;SDS011;63774;45.292;11.784;2022-12-20T07:11:11;15.40;;;9.70;;
69551;SDS011;63774;45.292;11.784;2022-12-20T07:13:37;15.30;;;9.90;;
69551;SDS011;63774;45.292;11.784;2022-12-20T07:16:03;12.60;;;9.10;;
69551;SDS011;63774;45.292;11.784;2022-12-20T07:18:29;14.00;;;9.50;;
69551;SDS011;63774;45.292;11.784;2022-12-20T07:20:59;13.60;;;9.30;;
69551;SDS011;63774;45.292;11.784;2022-12-20T07:23:25;14.20;;;9.50;;
69551;SDS011;63774;45.292;11.784;2022-12-20T07:25:57;13.60;;;9.20;;
69551;SDS011;63774;45.292;11.784;2022-12-20T07:28:25;15.80;;;9.50;;
69551;SDS011;63774;45.292;11.784;2022-12-20T07:30:51;14.20;;;9.60;;
69551;SDS011;63774;45.292;11.784;2022-12-20T07:33:18;13.20;;;9.10;;
69551;SDS011;63774;45.292;11.784;2022-12-20T07:35:43;13.80;;;9.20;;
69551;SDS011;63774;45.292;11.784;2022-12-20T07:38:13;13.70;;;9.10;;
69551;SDS011;63774;45.292;11.784;2022-12-20T07:40:40;13.90;;;9.30;;
69551;SDS011;63774;45.292;11.784;2022-12-20T07:43:07;12.90;;;8.80;;
69551;SDS011;63774;45.292;11.784;2022-12-20T07:45:35;13.40;;;9.30;;
69551;SDS011;63774;45.292;11.784;2022-12-20T07:48:04;13.00;;;8.10;;
69551;SDS011;63774;45.292;11.784;2022-12-20T07:50:30;12.90;;;8.80;;
69551;SDS011;63774;45.292;11.784;2022-12-20T07:52:58;13.60;;;9.50;;
69551;SDS011;63774;45.292;11.784;2022-12-20T07:55:24;13.30;;;9.30;;
69551;SDS011;63774;45.292;11.784;2022-12-20T07:57:52;13.00;;;8.80;;
69551;SDS011;63774;45.292;11.784;2022-12-20T08:00:22;11.40;;;8.60;;
69551;SDS011;63774;45.292;11.784;2022-12-20T08:02:56;17.00;;;9.20;;
69551;SDS011;63774;45.292;11.784;2022-12-20T08:05:24;12.10;;;8.60;;
69551;SDS011;63774;45.292;11.784;2022-12-20T08:07:50;13.80;;;9.50;;
69551;SDS011;63774;45.292;11.784;2022-12-20T08:10:17;11.40;;;8.60;;
69551;SDS011;63774;45.292;11.784;2022-12-20T08:12:43;13.50;;;8.90;;
69551;SDS011;63774;45.292;11.784;2022-12-20T08:15:11;13.40;;;8.60;;
69551;SDS011;63774;45.292;11.784;2022-12-20T08:17:37;13.20;;;8.60;;
69551;SDS011;63774;45.292;11.784;2022-12-20T08:20:02;13.10;;;9.10;;
69551;SDS011;63774;45.292;11.784;2022-12-20T08:22:31;12.60;;;8.80;;
69551;SDS011;63774;45.292;11.784;2022-12-20T08:24:56;14.10;;;8.60;;
69551;SDS011;63774;45.292;11.784;2022-12-20T08:27:22;11.70;;;8.20;;
69551;SDS011;63774;45.292;11.784;2022-12-20T08:29:47;12.80;;;8.70;;
69551;SDS011;63774;45.292;11.784;2022-12-20T08:32:14;19.20;;;8.30;;
69551;SDS011;63774;45.292;11.784;2022-12-20T08:34:40;12.20;;;8.80;;
69551;SDS011;63774;45.292;11.784;2022-12-20T08:37:05;12.20;;;8.10;;
69551;SDS011;63774;45.292;11.784;2022-12-20T08:39:31;12.50;;;8.40;;
69551;SDS011;63774;45.292;11.784;2022-12-20T08:41:57;13.70;;;8.30;;
69551;SDS011;63774;45.292;11.784;2022-12-20T08:44:22;13.50;;;8.40;;
69551;SDS011;63774;45.292;11.784;2022-12-20T08:46:47;15.60;;;9.30;;
69551;SDS011;63774;45.292;11.784;2022-12-20T08:49:13;12.50;;;8.20;;
69551;SDS011;63774;45.292;11.784;2022-12-20T08:51:38;14.40;;;8.40;;
69551;SDS011;63774;45.292;11.784;2022-12-20T08:54:04;14.60;;;9.10;;
69551;SDS011;63774;45.292;11.784;2022-12-20T08:56:29;13.10;;;8.80;;
69551;SDS011;63774;45.292;11.784;2022-12-20T08:58:55;13.10;;;8.30;;
69551;SDS011;63774;45.292;11.784;2022-12-20T09:01:20;12.40;;;8.30;;
69551;SDS011;63774;45.292;11.784;2022-12-20T09:03:47;12.50;;;8.00;;
69551;SDS011;63774;45.292;11.784;2022-12-20T09:06:17;12.90;;;8.60;;
69551;SDS011;63774;45.292;11.784;2022-12-20T09:08:44;11.60;;;8.20;;
69551;SDS011;63774;45.292;11.784;2022-12-20T09:11:12;12.00;;;8.20;;
69551;SDS011;63774;45.292;11.784;2022-12-20T09:13:40;12.40;;;8.50;;
69551;SDS011;63774;45.292;11.784;2022-12-20T09:16:07;12.70;;;8.30;;
69551;SDS011;63774;45.292;11.784;2022-12-20T09:18:33;13.20;;;8.60;;
69551;SDS011;63774;45.292;11.784;2022-12-20T09:21:03;13.30;;;8.00;;
69551;SDS011;63774;45.292;11.784;2022-12-20T09:23:30;13.30;;;8.20;;
69551;SDS011;63774;45.292;11.784;2022-12-20T09:26:03;12.10;;;8.20;;
69551;SDS011;63774;45.292;11.784;2022-12-20T09:28:31;10.90;;;7.60;;
69551;SDS011;63774;45.292;11.784;2022-12-20T09:30:58;11.20;;;8.10;;
69551;SDS011;63774;45.292;11.784;2022-12-20T09:33:28;13.20;;;8.40;;
69551;SDS011;63774;45.292;11.784;2022-12-20T09:35:55;12.10;;;8.40;;
69551;SDS011;63774;45.292;11.784;2022-12-20T09:38:21;13.90;;;9.00;;
69551;SDS011;63774;45.292;11.784;2022-12-20T09:40:47;11.90;;;7.70;;
69551;SDS011;63774;45.292;11.784;2022-12-20T09:43:15;13.50;;;8.60;;
69551;SDS011;63774;45.292;11.784;2022-12-20T09:45:41;12.40;;;8.40;;
69551;SDS011;63774;45.292;11.784;2022-12-20T09:48:15;12.00;;;8.40;;
69551;SDS011;63774;45.292;11.784;2022-12-20T09:56:35;11.80;;;8.10;;
69551;SDS011;63774;45.292;11.784;2022-12-20T09:59:05;11.70;;;8.40;;
69551;SDS011;63774;45.292;11.784;2022-12-20T10:01:37;12.00;;;8.00;;
69551;SDS011;63774;45.292;11.784;2022-12-20T10:04:05;11.10;;;7.90;;
69551;SDS011;63774;45.292;11.784;2022-12-20T10:06:43;11.50;;;7.80;;
69551;SDS011;63774;45.292;11.784;2022-12-20T10:09:29;11.90;;;7.60;;
69551;SDS011;63774;45.292;11.784;2022-12-20T10:18:41;10.40;;;7.60;;
69551;SDS011;63774;45.292;11.784;2022-12-20T10:23:48;11.70;;;7.80;;
69551;SDS011;63774;45.292;11.784;2022-12-20T10:26:15;13.30;;;8.20;;
69551;SDS011;63774;45.292;11.784;2022-12-20T10:28:40;12.90;;;8.50;;
69551;SDS011;63774;45.292;11.784;2022-12-20T10:31:10;10.50;;;7.70;;
69551;SDS011;63774;45.292;11.784;2022-12-20T10:33:38;12.10;;;8.20;;
69551;SDS011;63774;45.292;11.784;2022-12-20T10:36:18;12.20;;;8.50;;
69551;SDS011;63774;45.292;11.784;2022-12-20T10:38:48;11.50;;;7.60;;
69551;SDS011;63774;45.292;11.784;2022-12-20T10:41:16;11.00;;;7.70;;
69551;SDS011;63774;45.292;11.784;2022-12-20T10:43:48;12.30;;;8.30;;
69551;SDS011;63774;45.292;11.784;2022-12-20T10:49:26;10.90;;;7.80;;
69551;SDS011;63774;45.292;11.784;2022-12-20T10:54:39;11.20;;;7.50;;
69551;SDS011;63774;45.292;11.784;2022-12-20T10:57:25;12.30;;;7.70;;
69551;SDS011;63774;45.292;11.784;2022-12-20T10:59:54;12.40;;;8.10;;
69551;SDS011;63774;45.292;11.784;2022-12-20T11:02:31;11.30;;;7.70;;
69551;SDS011;63774;45.292;11.784;2022-12-20T11:05:15;11.10;;;7.80;;
69551;SDS011;63774;45.292;11.784;2022-12-20T11:10:30;10.60;;;7.60;;
69551;SDS011;63774;45.292;11.784;2022-12-20T11:12:57;10.80;;;7.70;;
69551;SDS011;63774;45.292;11.784;2022-12-20T11:15:25;11.20;;;7.40;;
69551;SDS011;63774;45.292;11.784;2022-12-20T11:31:27;11.90;;;8.00;;
69551;SDS011;63774;45.292;11.784;2022-12-20T11:42:39;10.90;;;7.30;;
69551;SDS011;63774;45.292;11.784;2022-12-20T11:53:42;10.90;;;7.60;;
69551;SDS011;63774;45.292;11.784;2022-12-20T11:56:14;12.50;;;8.20;;
69551;SDS011;63774;45.292;11.784;2022-12-20T12:01:52;11.50;;;7.40;;
69551;SDS011;63774;45.292;11.784;2022-12-20T12:04:25;10.30;;;7.60;;
69551;SDS011;63774;45.292;11.784;2022-12-20T12:09:37;12.00;;;7.70;;
69551;SDS011;63774;45.292;11.784;2022-12-20T12:12:11;12.10;;;7.60;;
69551;SDS011;63774;45.292;11.784;2022-12-20T12:17:25;10.70;;;7.20;;
69551;SDS011;63774;45.292;11.784;2022-12-20T12:20:18;12.70;;;8.00;;
69551;SDS011;63774;45.292;11.784;2022-12-20T12:22:45;11.40;;;7.50;;
69551;SDS011;63774;45.292;11.784;2022-12-20T12:25:15;11.70;;;7.80;;
69551;SDS011;63774;45.292;11.784;2022-12-20T12:27:42;12.40;;;8.00;;
69551;SDS011;63774;45.292;11.784;2022-12-20T12:30:12;12.10;;;7.70;;
69551;SDS011;63774;45.292;11.784;2022-12-20T12:32:46;11.00;;;7.80;;
69551;SDS011;63774;45.292;11.784;2022-12-20T12:38:59;10.60;;;7.10;;
69551;SDS011;63774;45.292;11.784;2022-12-20T12:47:00;11.80;;;7.40;;
69551;SDS011;63774;45.292;11.784;2022-12-20T12:49:30;12.70;;;7.40;;
69551;SDS011;63774;45.292;11.784;2022-12-20T12:51:58;10.80;;;7.50;;
69551;SDS011;63774;45.292;11.784;2022-12-20T12:56:59;10.30;;;7.50;;
69551;SDS011;63774;45.292;11.784;2022-12-20T13:07:26;10.40;;;7.30;;
69551;SDS011;63774;45.292;11.784;2022-12-20T13:09:58;10.70;;;7.10;;
69551;SDS011;63774;45.292;11.784;2022-12-20T13:20:25;9.90;;;6.70;;
69551;SDS011;63774;45.292;11.784;2022-12-20T13:23:12;9.50;;;6.70;;
69551;SDS011;63774;45.292;11.784;2022-12-20T13:25:47;10.00;;;6.80;;
69551;SDS011;63774;45.292;11.784;2022-12-20T13:36:28;11.60;;;7.10;;
69551;SDS011;63774;45.292;11.784;2022-12-20T13:38:56;12.80;;;7.10;;
69551;SDS011;63774;45.292;11.784;2022-12-20T13:41:30;10.00;;;7.10;;
69551;SDS011;63774;45.292;11.784;2022-12-20T13:46:44;11.90;;;7.50;;
69551;SDS011;63774;45.292;11.784;2022-12-20T13:49:20;13.60;;;7.20;;
69551;SDS011;63774;45.292;11.784;2022-12-20T13:54:39;10.90;;;7.40;;
69551;SDS011;63774;45.292;11.784;2022-12-20T13:57:06;10.90;;;7.00;;
69551;SDS011;63774;45.292;11.784;2022-12-20T13:59:31;10.20;;;6.90;;
69551;SDS011;63774;45.292;11.784;2022-12-20T14:02:02;12.80;;;7.10;;
69551;SDS011;63774;45.292;11.784;2022-12-20T14:04:39;12.00;;;7.70;;
69551;SDS011;63774;45.292;11.784;2022-12-20T14:07:08;11.20;;;7.70;;
69551;SDS011;63774;45.292;11.784;2022-12-20T14:09:38;11.30;;;7.10;;
69551;SDS011;63774;45.292;11.784;2022-12-20T14:12:14;10.40;;;7.00;;
69551;SDS011;63774;45.292;11.784;2022-12-20T14:14:44;10.70;;;7.10;;
69551;SDS011;63774;45.292;11.784;2022-12-20T14:22:56;10.80;;;7.10;;
69551;SDS011;63774;45.292;11.784;2022-12-20T14:28:01;10.40;;;6.50;;
69551;SDS011;63774;45.292;11.784;2022-12-20T14:30:28;11.20;;;7.60;;
69551;SDS011;63774;45.292;11.784;2022-12-20T14:32:57;10.40;;;6.70;;
69551;SDS011;63774;45.292;11.784;2022-12-20T14:35:23;10.80;;;7.00;;
69551;SDS011;63774;45.292;11.784;2022-12-20T14:37:56;10.10;;;7.10;;
69551;SDS011;63774;45.292;11.784;2022-12-20T14:40:24;10.50;;;6.90;;
69551;SDS011;63774;45.292;11.784;2022-12-20T14:42:51;9.90;;;7.20;;
69551;SDS011;63774;45.292;11.784;2022-12-20T14:45:18;10.50;;;7.40;;
69551;SDS011;63774;45.292;11.784;2022-12-20T14:50:19;11.50;;;7.30;;
69551;SDS011;63774;45.292;11.784;2022-12-20T14:52:48;11.40;;;6.80;;
69551;SDS011;63774;45.292;11.784;2022-12-20T14:55:18;11.00;;;7.50;;
69551;SDS011;63774;45.292;11.784;2022-12-20T14:57:53;11.70;;;7.00;;
69551;SDS011;63774;45.292;11.784;2022-12-20T15:00:24;10.40;;;7.10;;
69551;SDS011;63774;45.292;11.784;2022-12-20T15:02:59;11.30;;;7.60;;
69551;SDS011;63774;45.292;11.784;2022-12-20T15:05:49;10.10;;;6.60;;
69551;SDS011;63774;45.292;11.784;2022-12-20T15:08:27;11.00;;;7.00;;
69551;SDS011;63774;45.292;11.784;2022-12-20T15:13:45;10.20;;;6.70;;
69551;SDS011;63774;45.292;11.784;2022-12-20T15:18:49;11.20;;;7.20;;
69551;SDS011;63774;45.292;11.784;2022-12-20T15:23:48;10.20;;;7.10;;
69551;SDS011;63774;45.292;11.784;2022-12-20T15:26:16;12.50;;;7.60;;
69551;SDS011;63774;45.292;11.784;2022-12-20T15:28:43;11.80;;;7.40;;
69551;SDS011;63774;45.292;11.784;2022-12-20T15:31:10;12.30;;;7.70;;
69551;SDS011;63774;45.292;11.784;2022-12-20T15:33:39;13.90;;;7.70;;
69551;SDS011;63774;45.292;11.784;2022-12-20T15:36:06;12.40;;;7.90;;
69551;SDS011;63774;45.292;11.784;2022-12-20T15:38:45;11.60;;;7.50;;
69551;SDS011;63774;45.292;11.784;2022-12-20T15:41:21;11.40;;;7.20;;
69551;SDS011;63774;45.292;11.784;2022-12-20T15:43:49;12.20;;;7.60;;
69551;SDS011;63774;45.292;11.784;2022-12-20T15:46:16;12.50;;;7.40;;
69551;SDS011;63774;45.292;11.784;2022-12-20T15:48:42;12.70;;;8.20;;
69551;SDS011;63774;45.292;11.784;2022-12-20T15:51:20;12.30;;;7.80;;
69551;SDS011;63774;45.292;11.784;2022-12-20T15:53:52;12.70;;;8.30;;
69551;SDS011;63774;45.292;11.784;2022-12-20T15:56:19;12.00;;;7.40;;
69551;SDS011;63774;45.292;11.784;2022-12-20T15:58:46;12.20;;;6.80;;
69551;SDS011;63774;45.292;11.784;2022-12-20T16:01:13;12.40;;;7.30;;
69551;SDS011;63774;45.292;11.784;2022-12-20T16:03:45;13.20;;;7.80;;
69551;SDS011;63774;45.292;11.784;2022-12-20T16:06:10;13.20;;;8.10;;
69551;SDS011;63774;45.292;11.784;2022-12-20T16:08:39;10.90;;;7.20;;
69551;SDS011;63774;45.292;11.784;2022-12-20T16:11:06;14.00;;;7.50;;
69551;SDS011;63774;45.292;11.784;2022-12-20T16:13:45;12.00;;;7.90;;
69551;SDS011;63774;45.292;11.784;2022-12-20T16:16:22;11.20;;;7.60;;
69551;SDS011;63774;45.292;11.784;2022-12-20T16:18:55;13.10;;;7.60;;
69551;SDS011;63774;45.292;11.784;2022-12-20T16:21:24;12.20;;;8.00;;
69551;SDS011;63774;45.292;11.784;2022-12-20T16:24:08;11.50;;;7.10;;
69551;SDS011;63774;45.292;11.784;2022-12-20T16:26:36;12.20;;;7.50;;
69551;SDS011;63774;45.292;11.784;2022-12-20T16:29:02;12.20;;;7.70;;
69551;SDS011;63774;45.292;11.784;2022-12-20T16:31:31;12.60;;;7.30;;
69551;SDS011;63774;45.292;11.784;2022-12-20T16:34:02;13.00;;;7.90;;
69551;SDS011;63774;45.292;11.784;2022-12-20T16:36:28;13.00;;;8.10;;
69551;SDS011;63774;45.292;11.784;2022-12-20T16:38:54;13.80;;;7.80;;
69551;SDS011;63774;45.292;11.784;2022-12-20T16:41:21;12.30;;;8.10;;
69551;SDS011;63774;45.292;11.784;2022-12-20T16:43:49;10.70;;;7.20;;
69551;SDS011;63774;45.292;11.784;2022-12-20T16:46:16;12.00;;;7.50;;
69551;SDS011;63774;45.292;11.784;2022-12-20T16:48:43;11.70;;;7.50;;
69551;SDS011;63774;45.292;11.784;2022-12-20T16:51:28;12.00;;;7.90;;
69551;SDS011;63774;45.292;11.784;2022-12-20T16:53:57;12.00;;;7.60;;